createdAt,value
2023-04-21T00:02:52.725Z,8.07
2023-04-21T00:07:56.011Z,8.90
2023-04-21T00:13:00.619Z,9.33
2023-04-21T00:18:03.932Z,8.77
2023-04-21T00:23:07.158Z,9.83
2023-04-21T00:28:11.678Z,7.67
2023-04-21T00:33:14.830Z,9.20
2023-04-21T00:38:17.916Z,6.97
2023-04-21T00:43:22.440Z,8.77
2023-04-21T00:48:25.658Z,9.30
2023-04-21T00:53:28.976Z,8.63
2023-04-21T00:58:34.701Z,8.53
2023-04-21T01:03:38.106Z,9.13
2023-04-21T01:08:41.768Z,9.77
2023-04-21T01:13:46.316Z,9.27
2023-04-21T01:18:49.507Z,8.20
2023-04-21T01:23:54.344Z,9.13
2023-04-21T01:28:58.878Z,8.77
2023-04-21T01:34:05.264Z,9.93
2023-04-21T01:39:09.814Z,8.93
2023-04-21T01:44:12.990Z,8.37
2023-04-21T01:49:16.288Z,9.40
2023-04-21T01:54:20.830Z,8.90
2023-04-21T01:59:23.923Z,9.23
2023-04-21T02:04:27.239Z,9.43
2023-04-21T02:09:32.703Z,7.97
2023-04-21T02:14:35.859Z,10.10
2023-04-21T02:19:38.964Z,10.00
2023-04-21T02:24:43.469Z,10.67
2023-04-21T02:29:46.702Z,9.80
2023-04-21T02:34:50.018Z,10.33
2023-04-21T02:39:54.487Z,9.00
2023-04-21T02:44:57.643Z,10.70
2023-04-21T02:50:01.067Z,9.43
2023-04-21T02:55:06.014Z,9.73
2023-04-21T03:00:12.521Z,10.13
2023-04-21T03:05:16.114Z,10.53
2023-04-21T03:10:20.593Z,8.37
2023-04-21T03:15:23.956Z,10.40
2023-04-21T03:20:27.096Z,7.73
2023-04-21T03:25:31.601Z,10.27
2023-04-21T03:30:34.895Z,9.17
2023-04-21T03:35:38.060Z,9.20
2023-04-21T03:40:42.601Z,10.10
2023-04-21T03:45:45.697Z,9.00
2023-04-21T03:50:48.862Z,9.63
2023-04-21T03:55:53.451Z,10.33
2023-04-21T04:00:56.528Z,10.17
2023-04-21T04:05:59.628Z,10.30
2023-04-21T04:11:04.164Z,10.27
2023-04-21T04:16:08.254Z,11.20
2023-04-21T04:21:11.583Z,15.43
2023-04-21T04:26:16.257Z,12.03
2023-04-21T04:31:19.537Z,11.33
2023-04-21T04:36:22.803Z,11.83
2023-04-21T04:41:27.351Z,10.93
2023-04-21T04:46:30.469Z,10.77
2023-04-21T04:51:33.860Z,9.23
2023-04-21T04:56:38.558Z,10.10
2023-04-21T05:01:42.443Z,10.57
2023-04-21T05:06:45.606Z,11.93
2023-04-21T05:11:50.130Z,27.30
2023-04-21T05:16:53.334Z,17.13
2023-04-21T05:22:01.125Z,14.47
2023-04-21T05:27:05.806Z,13.67
2023-04-21T05:32:09.248Z,13.70
2023-04-21T05:37:12.881Z,12.33
2023-04-21T05:42:18.350Z,13.37
2023-04-21T05:47:21.506Z,12.90
2023-04-21T05:52:24.681Z,12.47
2023-04-21T05:57:29.173Z,11.33
2023-04-21T06:02:32.361Z,12.97
2023-04-21T06:07:38.232Z,11.53
2023-04-21T06:12:42.651Z,12.47
2023-04-21T06:17:45.839Z,12.10
2023-04-21T06:22:48.968Z,12.60
2023-04-21T06:27:53.446Z,13.27
2023-04-21T06:32:56.531Z,13.73
2023-04-21T06:37:59.683Z,13.30
2023-04-21T06:43:04.274Z,10.40
2023-04-21T06:48:07.735Z,13.77
2023-04-21T06:53:11.568Z,12.10
2023-04-21T06:58:16.134Z,12.50
2023-04-21T07:03:19.432Z,12.83
2023-04-21T07:08:22.634Z,14.53
2023-04-21T07:13:27.138Z,13.23
2023-04-21T07:18:30.436Z,14.87
2023-04-21T07:23:33.504Z,14.57
2023-04-21T07:28:38.783Z,13.70
2023-04-21T07:33:41.863Z,14.90
2023-04-21T07:38:45.044Z,15.43
2023-04-21T07:43:50.427Z,16.23
2023-04-21T07:48:54.450Z,15.70
2023-04-21T07:53:57.561Z,15.60
2023-04-21T07:59:05.048Z,15.17
2023-04-21T08:04:08.303Z,16.20
2023-04-21T08:09:11.492Z,14.97
2023-04-21T08:14:16.393Z,15.40
2023-04-21T08:19:20.006Z,15.90
2023-04-21T08:24:23.464Z,16.00
2023-04-21T08:29:28.156Z,16.27
2023-04-21T08:34:31.400Z,15.90
2023-04-21T08:39:34.747Z,14.07
2023-04-21T08:44:41.571Z,15.67
2023-04-21T08:49:45.686Z,14.93
2023-04-21T08:54:51.979Z,14.57
2023-04-21T08:59:56.626Z,14.13
2023-04-21T09:05:00.103Z,14.57
2023-04-21T09:10:03.887Z,14.03
2023-04-21T09:15:11.953Z,13.03
2023-04-21T09:20:16.958Z,13.83
2023-04-21T09:25:22.126Z,12.53
2023-04-21T09:30:26.713Z,13.17
2023-04-21T09:35:30.403Z,12.13
2023-04-21T09:40:34.717Z,11.10
2023-04-21T09:45:40.875Z,11.03
2023-04-21T09:55:52.861Z,11.20
2023-04-21T10:00:59.062Z,11.50
2023-04-21T10:06:02.251Z,11.93
2023-04-21T10:11:06.277Z,11.77
2023-04-21T10:16:11.403Z,10.47
2023-04-21T10:21:21.706Z,11.10
2023-04-21T10:26:27.082Z,11.57
2023-04-21T10:31:36.452Z,12.10
2023-04-21T10:36:48.286Z,9.10
2023-04-21T10:41:51.443Z,9.93
2023-04-21T10:46:56.575Z,9.83
2023-04-21T10:52:08.586Z,11.47
2023-04-21T10:57:13.889Z,10.97
2023-04-21T11:02:19.936Z,9.03
2023-04-21T11:07:24.197Z,8.43
2023-04-21T11:12:30.756Z,8.37
2023-04-21T11:17:35.861Z,7.40
2023-04-21T11:22:39.475Z,7.87
2023-04-21T11:27:42.607Z,7.13
2023-04-21T11:32:48.354Z,7.67
2023-04-21T11:37:52.742Z,6.40
2023-04-21T11:42:56.180Z,6.67
2023-04-21T11:53:30.247Z,6.57
2023-04-21T11:58:33.418Z,5.60
2023-04-21T12:03:36.880Z,6.53
2023-04-21T12:08:41.833Z,4.70
2023-04-21T12:13:46.386Z,4.60
2023-04-21T12:18:50.373Z,4.50
2023-04-21T12:23:54.820Z,3.90
2023-04-21T12:29:00.536Z,4.23
2023-04-21T12:34:03.753Z,4.90
2023-04-21T12:39:08.476Z,4.27
2023-04-21T12:44:11.825Z,5.17
2023-04-21T12:49:15.774Z,4.47
2023-04-21T12:54:20.432Z,4.80
2023-04-21T12:59:23.738Z,3.93
2023-04-21T13:04:27.218Z,3.77
2023-04-21T13:09:32.530Z,3.33
2023-04-21T13:14:35.806Z,2.83
2023-04-21T13:19:38.928Z,2.43
2023-04-21T13:24:43.438Z,2.10
2023-04-21T13:29:47.656Z,2.10
2023-04-21T13:34:50.883Z,2.00
2023-04-21T13:39:55.489Z,2.00
2023-04-21T13:44:58.623Z,1.80
2023-04-21T13:50:01.976Z,2.00
2023-04-21T13:55:07.521Z,1.80
2023-04-21T14:00:12.156Z,2.40
2023-04-21T14:05:15.546Z,2.30
2023-04-21T14:10:20.356Z,2.20
2023-04-21T14:15:23.517Z,2.10
2023-04-21T14:20:27.015Z,1.70
2023-04-21T14:25:31.758Z,1.60
2023-04-21T14:30:35.276Z,1.93
2023-04-21T14:35:38.596Z,1.97
2023-04-21T14:40:43.227Z,1.77
2023-04-21T14:45:46.443Z,2.07
2023-04-21T14:50:49.575Z,1.50
2023-04-21T14:55:54.792Z,1.40
2023-04-21T15:00:58.313Z,1.63
2023-04-21T15:06:01.610Z,1.73
2023-04-21T15:11:06.398Z,1.83
2023-04-21T15:16:09.564Z,1.57
2023-04-21T15:21:12.746Z,1.80
2023-04-21T15:26:17.223Z,1.77
2023-04-21T15:31:20.423Z,1.40
2023-04-21T15:36:23.556Z,1.60
2023-04-21T15:41:29.622Z,1.77
2023-04-21T15:46:34.461Z,1.60
2023-04-21T15:51:37.831Z,2.00
2023-04-21T15:56:42.316Z,1.57
2023-04-21T16:01:45.605Z,1.60
2023-04-21T16:06:48.773Z,1.60
2023-04-21T16:11:53.286Z,2.30
2023-04-21T16:16:56.546Z,1.50
2023-04-21T16:21:59.924Z,1.43
2023-04-21T16:27:04.517Z,1.47
2023-04-21T16:32:08.331Z,1.77
2023-04-21T16:37:11.608Z,1.70
2023-04-21T16:42:16.190Z,1.63
2023-04-21T16:47:19.363Z,1.80
2023-04-21T16:52:22.843Z,1.50
2023-04-21T16:57:29.300Z,1.70
2023-04-21T17:02:32.740Z,1.73
2023-04-21T17:07:36.365Z,2.00
2023-04-21T17:12:40.921Z,1.90
2023-04-21T17:17:47.199Z,1.87
2023-04-21T17:22:50.478Z,1.87
2023-04-21T17:27:55.057Z,2.23
2023-04-21T17:33:12.670Z,2.70
2023-04-21T17:38:19.880Z,2.43
2023-04-21T17:43:24.421Z,2.70
2023-04-21T17:48:27.645Z,2.50
2023-04-21T17:53:30.890Z,2.50
2023-04-21T17:58:35.591Z,2.73
2023-04-21T18:03:41.449Z,2.20
2023-04-21T18:08:44.740Z,1.73
2023-04-21T18:13:49.320Z,2.80
2023-04-21T18:18:52.504Z,4.97
2023-04-21T18:23:56.738Z,3.90
2023-04-21T18:29:02.833Z,3.47
2023-04-21T18:34:06.231Z,2.97
2023-04-21T18:39:10.262Z,2.50
2023-04-21T18:44:14.858Z,2.30
2023-04-21T18:49:18.018Z,2.33
2023-04-21T18:54:21.183Z,4.20
2023-04-21T18:59:25.958Z,3.40
2023-04-21T19:04:29.154Z,3.20
2023-04-21T19:09:32.356Z,3.40
2023-04-21T19:14:46.707Z,3.63
2023-04-21T19:19:51.126Z,16.50
2023-04-21T19:24:56.209Z,10.40
2023-04-21T19:30:00.810Z,8.53
2023-04-21T19:35:04.648Z,7.43
2023-04-21T19:40:09.412Z,4.20
2023-04-21T19:45:14.244Z,3.57
2023-04-21T19:50:17.423Z,3.63
2023-04-21T19:55:20.615Z,8.50
2023-04-21T20:00:25.718Z,5.10
2023-04-21T20:05:28.978Z,3.90
2023-04-21T20:10:32.294Z,3.83
2023-04-21T20:15:37.083Z,7.50
2023-04-21T20:20:40.688Z,13.37
2023-04-21T20:25:43.943Z,7.03
2023-04-21T20:30:48.605Z,5.17
2023-04-21T20:35:52.494Z,5.20
2023-04-21T20:40:56.492Z,6.67
2023-04-21T20:46:01.908Z,7.17
2023-04-21T20:51:05.256Z,8.73
2023-04-21T20:56:08.652Z,5.30
2023-04-21T21:01:13.459Z,4.93
2023-04-21T21:06:17.122Z,3.97
2023-04-21T21:11:21.505Z,5.50
2023-04-21T21:16:26.141Z,4.20
2023-04-21T21:21:29.301Z,4.07
2023-04-21T21:26:32.467Z,4.83
2023-04-21T21:31:36.986Z,5.00
2023-04-21T21:36:40.140Z,4.33
2023-04-21T21:41:43.814Z,4.70
2023-04-21T21:46:48.841Z,4.07
2023-04-21T21:51:53.013Z,4.30
2023-04-21T21:56:56.334Z,4.30
2023-04-21T22:02:00.849Z,4.67
2023-04-21T22:07:05.201Z,4.40
2023-04-21T22:12:08.455Z,3.63
2023-04-21T22:17:13.142Z,4.60
2023-04-21T22:22:16.256Z,4.00
2023-04-21T22:27:19.349Z,4.63
2023-04-21T22:32:23.965Z,4.37
2023-04-21T22:37:27.112Z,4.30
2023-04-21T22:42:33.996Z,4.77
2023-04-21T22:47:38.602Z,5.10
2023-04-21T22:52:41.982Z,4.30
2023-04-21T22:57:45.357Z,9.30
2023-04-21T23:02:50.030Z,10.87
2023-04-21T23:07:53.267Z,12.77
2023-04-21T23:12:56.483Z,8.63
2023-04-21T23:18:01.094Z,6.93
2023-04-21T23:23:04.712Z,6.03
2023-04-21T23:28:07.962Z,4.87
2023-04-21T23:33:12.475Z,3.90
2023-04-21T23:38:15.684Z,3.53
2023-04-21T23:43:18.875Z,3.43
2023-04-21T23:48:23.356Z,4.13
2023-04-21T23:53:26.534Z,3.87
2023-04-21T23:58:29.635Z,3.60
